sensor_id;sensor_type;location;lat;lon;timestamp;pressure;altitude;pressure_sealevel;temperature;humidity
71976;BME280;60680;52.182;5.398;2022-07-10T00:00:03;102814.47;;;15.96;65.79
71976;BME280;60680;52.182;5.398;2022-07-10T00:02:29;102815.63;;;15.89;66.00
71976;BME280;60680;52.182;5.398;2022-07-10T00:04:56;102806.91;;;15.88;66.54
71976;BME280;60680;52.182;5.398;2022-07-10T00:07:23;102813.09;;;15.87;66.57
71976;BME280;60680;52.182;5.398;2022-07-10T00:09:49;102815.88;;;15.83;66.69
71976;BME280;60680;52.182;5.398;2022-07-10T00:12:16;102810.72;;;15.81;66.81
71976;BME280;60680;52.182;5.398;2022-07-10T00:14:42;102814.19;;;15.82;66.58
71976;BME280;60680;52.182;5.398;2022-07-10T00:17:10;102805.31;;;15.84;67.28
71976;BME280;60680;52.182;5.398;2022-07-10T00:19:36;102803.44;;;15.88;67.15
71976;BME280;60680;52.182;5.398;2022-07-10T00:22:03;102806.97;;;15.87;67.10
71976;BME280;60680;52.182;5.398;2022-07-10T00:24:30;102801.94;;;15.81;67.42
71976;BME280;60680;52.182;5.398;2022-07-10T00:26:56;102797.50;;;15.83;66.89
71976;BME280;60680;52.182;5.398;2022-07-10T00:29:23;102799.47;;;15.78;67.18
71976;BME280;60680;52.182;5.398;2022-07-10T00:31:49;102799.66;;;15.73;67.81
71976;BME280;60680;52.182;5.398;2022-07-10T00:34:16;102800.72;;;15.67;67.85
71976;BME280;60680;52.182;5.398;2022-07-10T00:36:42;102795.41;;;15.69;67.57
71976;BME280;60680;52.182;5.398;2022-07-10T00:39:10;102798.88;;;15.69;68.12
71976;BME280;60680;52.182;5.398;2022-07-10T00:41:36;102805.13;;;15.67;67.85
71976;BME280;60680;52.182;5.398;2022-07-10T00:44:03;102803.25;;;15.70;68.25
71976;BME280;60680;52.182;5.398;2022-07-10T00:46:31;102797.09;;;15.72;67.98
71976;BME280;60680;52.182;5.398;2022-07-10T00:48:57;102804.19;;;15.68;67.58
71976;BME280;60680;52.182;5.398;2022-07-10T00:51:26;102802.69;;;15.62;68.24
71976;BME280;60680;52.182;5.398;2022-07-10T00:53:53;102795.16;;;15.53;67.82
71976;BME280;60680;52.182;5.398;2022-07-10T00:56:22;102793.84;;;15.43;68.33
71976;BME280;60680;52.182;5.398;2022-07-10T00:58:50;102785.97;;;15.43;68.19
71976;BME280;60680;52.182;5.398;2022-07-10T01:01:17;102786.63;;;15.48;68.44
71976;BME280;60680;52.182;5.398;2022-07-10T01:03:44;102783.81;;;15.53;67.43
71976;BME280;60680;52.182;5.398;2022-07-10T01:06:15;102782.13;;;15.52;67.32
71976;BME280;60680;52.182;5.398;2022-07-10T01:08:42;102774.56;;;15.44;66.95
71976;BME280;60680;52.182;5.398;2022-07-10T01:11:10;102774.50;;;15.45;67.20
71976;BME280;60680;52.182;5.398;2022-07-10T01:13:37;102781.56;;;15.43;67.32
71976;BME280;60680;52.182;5.398;2022-07-10T01:16:04;102771.88;;;15.45;67.00
71976;BME280;60680;52.182;5.398;2022-07-10T01:18:31;102771.78;;;15.47;67.11
71976;BME280;60680;52.182;5.398;2022-07-10T01:20:57;102774.25;;;15.52;67.40
71976;BME280;60680;52.182;5.398;2022-07-10T01:23:24;102765.66;;;15.48;67.02
71976;BME280;60680;52.182;5.398;2022-07-10T01:25:50;102767.34;;;15.49;67.55
71976;BME280;60680;52.182;5.398;2022-07-10T01:28:17;102768.47;;;15.43;67.59
71976;BME280;60680;52.182;5.398;2022-07-10T01:30:48;102760.59;;;15.43;67.99
71976;BME280;60680;52.182;5.398;2022-07-10T01:33:14;102763.25;;;15.42;67.77
71976;BME280;60680;52.182;5.398;2022-07-10T01:35:41;102765.00;;;15.43;68.26
71976;BME280;60680;52.182;5.398;2022-07-10T01:38:07;102758.94;;;15.41;68.14
71976;BME280;60680;52.182;5.398;2022-07-10T01:40:34;102760.69;;;15.40;68.57
71976;BME280;60680;52.182;5.398;2022-07-10T01:43:00;102762.53;;;15.38;69.21
71976;BME280;60680;52.182;5.398;2022-07-10T01:45:27;102758.25;;;15.36;69.62
71976;BME280;60680;52.182;5.398;2022-07-10T01:47:53;102758.31;;;15.34;70.26
71976;BME280;60680;52.182;5.398;2022-07-10T01:50:20;102759.19;;;15.35;70.15
71976;BME280;60680;52.182;5.398;2022-07-10T01:52:47;102766.94;;;15.38;70.05
71976;BME280;60680;52.182;5.398;2022-07-10T01:55:13;102766.88;;;15.39;70.02
71976;BME280;60680;52.182;5.398;2022-07-10T01:57:40;102749.34;;;15.40;70.25
71976;BME280;60680;52.182;5.398;2022-07-10T02:00:07;102758.03;;;15.42;70.16
71976;BME280;60680;52.182;5.398;2022-07-10T02:02:35;102752.66;;;15.45;70.09
71976;BME280;60680;52.182;5.398;2022-07-10T02:05:02;102751.88;;;15.43;69.85
71976;BME280;60680;52.182;5.398;2022-07-10T02:07:28;102743.03;;;15.45;70.08
71976;BME280;60680;52.182;5.398;2022-07-10T02:09:55;102736.78;;;15.48;69.90
71976;BME280;60680;52.182;5.398;2022-07-10T02:12:21;102735.19;;;15.44;69.70
71976;BME280;60680;52.182;5.398;2022-07-10T02:14:48;102730.88;;;15.43;69.69
71976;BME280;60680;52.182;5.398;2022-07-10T02:17:14;102733.41;;;15.44;69.86
71976;BME280;60680;52.182;5.398;2022-07-10T02:19:42;102730.69;;;15.47;69.96
71976;BME280;60680;52.182;5.398;2022-07-10T02:22:08;102730.59;;;15.49;69.49
71976;BME280;60680;52.182;5.398;2022-07-10T02:24:35;102734.91;;;15.52;69.90
71976;BME280;60680;52.182;5.398;2022-07-10T02:27:02;102732.34;;;15.50;69.60
71976;BME280;60680;52.182;5.398;2022-07-10T02:29:28;102730.75;;;15.46;69.56
71976;BME280;60680;52.182;5.398;2022-07-10T02:31:55;102728.91;;;15.48;69.61
71976;BME280;60680;52.182;5.398;2022-07-10T02:34:22;102731.34;;;15.53;69.79
71976;BME280;60680;52.182;5.398;2022-07-10T02:36:48;102732.94;;;15.57;69.63
71976;BME280;60680;52.182;5.398;2022-07-10T02:39:20;102732.81;;;15.60;69.50
71976;BME280;60680;52.182;5.398;2022-07-10T02:41:48;102729.22;;;15.62;69.74
71976;BME280;60680;52.182;5.398;2022-07-10T02:44:15;102729.22;;;15.62;69.86
71976;BME280;60680;52.182;5.398;2022-07-10T02:46:42;102716.94;;;15.63;69.84
71976;BME280;60680;52.182;5.398;2022-07-10T02:49:09;102722.44;;;15.57;70.21
71976;BME280;60680;52.182;5.398;2022-07-10T02:51:35;102722.63;;;15.52;69.90
71976;BME280;60680;52.182;5.398;2022-07-10T02:54:02;102720.19;;;15.47;70.45
71976;BME280;60680;52.182;5.398;2022-07-10T02:56:28;102724.69;;;15.44;70.08
71976;BME280;60680;52.182;5.398;2022-07-10T02:58:55;102729.06;;;15.45;70.57
71976;BME280;60680;52.182;5.398;2022-07-10T03:01:21;102729.16;;;15.42;70.16
71976;BME280;60680;52.182;5.398;2022-07-10T03:03:48;102722.94;;;15.44;70.30
71976;BME280;60680;52.182;5.398;2022-07-10T03:06:14;102722.94;;;15.44;69.89
71976;BME280;60680;52.182;5.398;2022-07-10T03:08:41;102730.00;;;15.42;69.71
71976;BME280;60680;52.182;5.398;2022-07-10T03:11:08;102727.56;;;15.38;69.87
71976;BME280;60680;52.182;5.398;2022-07-10T03:13:35;102732.09;;;15.34;69.33
71976;BME280;60680;52.182;5.398;2022-07-10T03:16:01;102725.19;;;15.32;68.85
71976;BME280;60680;52.182;5.398;2022-07-10T03:18:29;102731.19;;;15.35;69.75
71976;BME280;60680;52.182;5.398;2022-07-10T03:20:55;102718.00;;;15.37;69.37
71976;BME280;60680;52.182;5.398;2022-07-10T03:23:22;102726.69;;;15.39;68.99
71976;BME280;60680;52.182;5.398;2022-07-10T03:25:49;102726.72;;;15.37;69.18
71976;BME280;60680;52.182;5.398;2022-07-10T03:28:15;102724.91;;;15.39;69.25
71976;BME280;60680;52.182;5.398;2022-07-10T03:30:42;102728.38;;;15.40;69.25
71976;BME280;60680;52.182;5.398;2022-07-10T03:33:08;102717.03;;;15.39;68.71
71976;BME280;60680;52.182;5.398;2022-07-10T03:35:35;102722.22;;;15.41;69.34
71976;BME280;60680;52.182;5.398;2022-07-10T03:38:01;102724.84;;;15.41;69.23
71976;BME280;60680;52.182;5.398;2022-07-10T03:40:28;102717.75;;;15.43;69.05
71976;BME280;60680;52.182;5.398;2022-07-10T03:42:55;102722.88;;;15.46;69.72
71976;BME280;60680;52.182;5.398;2022-07-10T03:45:22;102723.66;;;15.48;69.26
71976;BME280;60680;52.182;5.398;2022-07-10T03:47:48;102723.66;;;15.48;69.23
71976;BME280;60680;52.182;5.398;2022-07-10T03:50:14;102720.25;;;15.46;69.90
71976;BME280;60680;52.182;5.398;2022-07-10T03:52:41;102722.88;;;15.46;69.32
71976;BME280;60680;52.182;5.398;2022-07-10T03:55:08;102717.69;;;15.44;69.50
71976;BME280;60680;52.182;5.398;2022-07-10T03:57:34;102707.97;;;15.46;69.32
71976;BME280;60680;52.182;5.398;2022-07-10T04:00:21;102707.94;;;15.48;69.55
71976;BME280;60680;52.182;5.398;2022-07-10T04:03:00;102709.38;;;15.55;69.70
71976;BME280;60680;52.182;5.398;2022-07-10T04:05:27;102709.56;;;15.50;69.59
71976;BME280;60680;52.182;5.398;2022-07-10T04:07:54;102713.03;;;15.51;69.89
71976;BME280;60680;52.182;5.398;2022-07-10T04:10:24;102713.31;;;15.45;69.77
71976;BME280;60680;52.182;5.398;2022-07-10T04:12:51;102708.13;;;15.43;69.86
71976;BME280;60680;52.182;5.398;2022-07-10T04:15:18;102713.47;;;15.40;70.21
71976;BME280;60680;52.182;5.398;2022-07-10T04:17:46;102713.41;;;15.42;70.58
71976;BME280;60680;52.182;5.398;2022-07-10T04:20:13;102709.00;;;15.42;70.21
71976;BME280;60680;52.182;5.398;2022-07-10T04:22:40;102703.91;;;15.39;70.53
71976;BME280;60680;52.182;5.398;2022-07-10T04:25:07;102702.06;;;15.41;70.46
71976;BME280;60680;52.182;5.398;2022-07-10T04:27:34;102713.56;;;15.39;70.80
71976;BME280;60680;52.182;5.398;2022-07-10T04:30:02;102708.38;;;15.37;70.36
71976;BME280;60680;52.182;5.398;2022-07-10T04:32:28;102709.22;;;15.38;70.39
71976;BME280;60680;52.182;5.398;2022-07-10T04:34:55;102706.59;;;15.38;71.33
71976;BME280;60680;52.182;5.398;2022-07-10T04:37:22;102702.13;;;15.40;71.54
71976;BME280;60680;52.182;5.398;2022-07-10T04:39:49;102702.81;;;15.45;71.49
71976;BME280;60680;52.182;5.398;2022-07-10T04:42:22;102707.94;;;15.48;71.55
71976;BME280;60680;52.182;5.398;2022-07-10T04:44:48;102701.69;;;15.50;71.22
71976;BME280;60680;52.182;5.398;2022-07-10T04:47:14;102702.47;;;15.53;71.05
71976;BME280;60680;52.182;5.398;2022-07-10T04:49:41;102699.81;;;15.54;71.38
71976;BME280;60680;52.182;5.398;2022-07-10T04:52:07;102703.28;;;15.55;71.58
71976;BME280;60680;52.182;5.398;2022-07-10T04:54:34;102700.66;;;15.55;71.95
71976;BME280;60680;52.182;5.398;2022-07-10T04:57:00;102702.28;;;15.57;72.28
71976;BME280;60680;52.182;5.398;2022-07-10T04:59:27;102702.97;;;15.62;72.02
71976;BME280;60680;52.182;5.398;2022-07-10T05:01:54;102707.22;;;15.65;71.73
71976;BME280;60680;52.182;5.398;2022-07-10T05:04:20;102710.84;;;15.62;71.86
71976;BME280;60680;52.182;5.398;2022-07-10T05:06:47;102707.22;;;15.65;72.59
71976;BME280;60680;52.182;5.398;2022-07-10T05:09:14;102714.09;;;15.67;72.39
71976;BME280;60680;52.182;5.398;2022-07-10T05:11:40;102715.94;;;15.65;72.42
71976;BME280;60680;52.182;5.398;2022-07-10T05:14:07;102712.41;;;15.66;72.06
71976;BME280;60680;52.182;5.398;2022-07-10T05:16:33;102714.97;;;15.68;72.47
71976;BME280;60680;52.182;5.398;2022-07-10T05:19:00;102714.00;;;15.70;72.76
71976;BME280;60680;52.182;5.398;2022-07-10T05:21:27;102714.84;;;15.71;72.50
71976;BME280;60680;52.182;5.398;2022-07-10T05:23:53;102715.66;;;15.73;72.23
71976;BME280;60680;52.182;5.398;2022-07-10T05:26:20;102715.72;;;15.72;72.41
71976;BME280;60680;52.182;5.398;2022-07-10T05:28:46;102714.91;;;15.69;72.05
71976;BME280;60680;52.182;5.398;2022-07-10T05:31:13;102713.25;;;15.67;71.96
71976;BME280;60680;52.182;5.398;2022-07-10T05:33:42;102715.94;;;15.65;71.93
71976;BME280;60680;52.182;5.398;2022-07-10T05:36:09;102721.34;;;15.62;72.34
71976;BME280;60680;52.182;5.398;2022-07-10T05:38:36;102718.75;;;15.61;72.28
71976;BME280;60680;52.182;5.398;2022-07-10T05:41:03;102722.19;;;15.63;72.39
71976;BME280;60680;52.182;5.398;2022-07-10T05:43:29;102704.59;;;15.65;72.53
71976;BME280;60680;52.182;5.398;2022-07-10T05:45:56;102717.56;;;15.68;72.59
71976;BME280;60680;52.182;5.398;2022-07-10T05:48:24;102713.22;;;15.68;72.35
71976;BME280;60680;52.182;5.398;2022-07-10T05:50:50;102718.34;;;15.72;72.31
71976;BME280;60680;52.182;5.398;2022-07-10T05:53:17;102723.41;;;15.76;72.60
71976;BME280;60680;52.182;5.398;2022-07-10T05:55:48;102717.34;;;15.74;72.15
71976;BME280;60680;52.182;5.398;2022-07-10T05:58:16;102719.09;;;15.75;72.89
71976;BME280;60680;52.182;5.398;2022-07-10T06:00:42;102717.31;;;15.76;72.79
71976;BME280;60680;52.182;5.398;2022-07-10T06:03:10;102707.53;;;15.79;72.33
71976;BME280;60680;52.182;5.398;2022-07-10T06:05:36;102720.56;;;15.81;72.85
71976;BME280;60680;52.182;5.398;2022-07-10T06:08:03;102716.06;;;15.84;72.70
71976;BME280;60680;52.182;5.398;2022-07-10T06:10:30;102715.84;;;15.89;72.38
71976;BME280;60680;52.182;5.398;2022-07-10T06:12:56;102719.16;;;15.94;72.68
71976;BME280;60680;52.182;5.398;2022-07-10T06:15:23;102719.16;;;15.94;72.57
71976;BME280;60680;52.182;5.398;2022-07-10T06:17:49;102714.75;;;15.95;72.12
71976;BME280;60680;52.182;5.398;2022-07-10T06:20:16;102718.16;;;15.97;72.62
71976;BME280;60680;52.182;5.398;2022-07-10T06:22:42;102720.84;;;15.95;72.80
71976;BME280;60680;52.182;5.398;2022-07-10T06:25:09;102720.06;;;15.93;72.85
71976;BME280;60680;52.182;5.398;2022-07-10T06:27:36;102723.53;;;15.94;72.57
71976;BME280;60680;52.182;5.398;2022-07-10T06:30:02;102729.66;;;15.94;72.96
71976;BME280;60680;52.182;5.398;2022-07-10T06:32:29;102730.63;;;15.92;73.79
71976;BME280;60680;52.182;5.398;2022-07-10T06:34:55;102728.97;;;15.89;73.03
71976;BME280;60680;52.182;5.398;2022-07-10T06:37:22;102728.13;;;15.88;73.41
71976;BME280;60680;52.182;5.398;2022-07-10T06:39:49;102726.34;;;15.89;72.95
71976;BME280;60680;52.182;5.398;2022-07-10T06:42:16;102728.97;;;15.89;73.51
71976;BME280;60680;52.182;5.398;2022-07-10T06:44:43;102727.19;;;15.89;73.22
71976;BME280;60680;52.182;5.398;2022-07-10T06:47:14;102732.28;;;15.94;73.25
71976;BME280;60680;52.182;5.398;2022-07-10T06:50:02;102729.56;;;15.96;72.47
71976;BME280;60680;52.182;5.398;2022-07-10T06:52:31;102724.19;;;15.99;72.97
71976;BME280;60680;52.182;5.398;2022-07-10T06:54:59;102735.59;;;15.98;72.45
71976;BME280;60680;52.182;5.398;2022-07-10T06:57:26;102722.56;;;15.96;73.02
71976;BME280;60680;52.182;5.398;2022-07-10T06:59:52;102719.06;;;15.96;72.41
71976;BME280;60680;52.182;5.398;2022-07-10T07:02:19;102723.47;;;15.95;72.38
71976;BME280;60680;52.182;5.398;2022-07-10T07:04:46;102718.94;;;15.99;72.52
71976;BME280;60680;52.182;5.398;2022-07-10T07:07:13;102720.59;;;16.01;72.91
71976;BME280;60680;52.182;5.398;2022-07-10T07:09:40;102717.06;;;16.02;72.18
71976;BME280;60680;52.182;5.398;2022-07-10T07:12:08;102720.31;;;16.07;72.52
71976;BME280;60680;52.182;5.398;2022-07-10T07:14:35;102722.81;;;16.10;71.90
71976;BME280;60680;52.182;5.398;2022-07-10T07:17:09;102727.88;;;16.15;71.97
71976;BME280;60680;52.182;5.398;2022-07-10T07:19:38;102721.63;;;16.18;71.50
71976;BME280;60680;52.182;5.398;2022-07-10T07:22:23;102729.94;;;16.27;71.43
71976;BME280;60680;52.182;5.398;2022-07-10T07:25:10;102726.00;;;16.38;71.13
71976;BME280;60680;52.182;5.398;2022-07-10T07:27:38;102715.94;;;16.47;70.53
71976;BME280;60680;52.182;5.398;2022-07-10T07:30:13;102715.66;;;16.54;71.00
71976;BME280;60680;52.182;5.398;2022-07-10T07:32:43;102714.50;;;16.59;70.75
71976;BME280;60680;52.182;5.398;2022-07-10T07:35:11;102724.09;;;16.60;70.46
71976;BME280;60680;52.182;5.398;2022-07-10T07:37:39;102721.25;;;16.65;70.76
71976;BME280;60680;52.182;5.398;2022-07-10T07:40:11;102721.09;;;16.68;70.07
71976;BME280;60680;52.182;5.398;2022-07-10T07:42:38;102723.47;;;16.74;70.69
71976;BME280;60680;52.182;5.398;2022-07-10T07:45:06;102717.28;;;16.75;69.90
71976;BME280;60680;52.182;5.398;2022-07-10T07:47:46;102727.66;;;16.78;70.55
71976;BME280;60680;52.182;5.398;2022-07-10T07:50:15;102730.38;;;16.77;69.92
71976;BME280;60680;52.182;5.398;2022-07-10T07:52:42;102736.88;;;16.68;70.08
71976;BME280;60680;52.182;5.398;2022-07-10T07:55:09;102736.25;;;16.63;70.61
71976;BME280;60680;52.182;5.398;2022-07-10T07:57:37;102736.25;;;16.63;70.32
71976;BME280;60680;52.182;5.398;2022-07-10T08:00:05;102732.69;;;16.64;71.21
71976;BME280;60680;52.182;5.398;2022-07-10T08:02:32;102731.56;;;16.69;70.57
71976;BME280;60680;52.182;5.398;2022-07-10T08:05:00;102736.53;;;16.76;70.16
71976;BME280;60680;52.182;5.398;2022-07-10T08:07:57;102734.75;;;16.76;70.10
71976;BME280;60680;52.182;5.398;2022-07-10T08:10:26;102738.25;;;16.77;70.04
71976;BME280;60680;52.182;5.398;2022-07-10T08:12:53;102732.84;;;16.80;69.62
71976;BME280;60680;52.182;5.398;2022-07-10T08:15:21;102730.75;;;16.88;69.53
71976;BME280;60680;52.182;5.398;2022-07-10T08:17:51;102732.22;;;16.94;68.58
71976;BME280;60680;52.182;5.398;2022-07-10T08:20:19;102729.00;;;17.06;69.56
71976;BME280;60680;52.182;5.398;2022-07-10T08:22:46;102730.63;;;17.08;68.85
71976;BME280;60680;52.182;5.398;2022-07-10T08:25:13;102726.47;;;17.04;67.91
71976;BME280;60680;52.182;5.398;2022-07-10T08:27:39;102724.41;;;17.11;67.97
71976;BME280;60680;52.182;5.398;2022-07-10T08:30:06;102727.72;;;17.15;67.40
71976;BME280;60680;52.182;5.398;2022-07-10T08:32:35;102723.34;;;17.15;67.34
71976;BME280;60680;52.182;5.398;2022-07-10T08:35:03;102731.06;;;17.18;67.31
71976;BME280;60680;52.182;5.398;2022-07-10T08:37:39;102718.34;;;17.28;67.36
71976;BME280;60680;52.182;5.398;2022-07-10T08:40:11;102719.50;;;17.40;66.86
71976;BME280;60680;52.182;5.398;2022-07-10T08:42:40;102719.75;;;17.52;66.76
71976;BME280;60680;52.182;5.398;2022-07-10T08:45:07;102721.06;;;17.61;66.96
71976;BME280;60680;52.182;5.398;2022-07-10T08:47:34;102718.28;;;17.64;65.89
71976;BME280;60680;52.182;5.398;2022-07-10T08:50:29;102718.19;;;17.66;65.08
71976;BME280;60680;52.182;5.398;2022-07-10T08:53:04;102718.66;;;17.74;66.00
71976;BME280;60680;52.182;5.398;2022-07-10T08:55:35;102722.00;;;17.78;65.56
71976;BME280;60680;52.182;5.398;2022-07-10T08:58:02;102715.50;;;17.85;65.68
71976;BME280;60680;52.182;5.398;2022-07-10T09:00:30;102719.53;;;17.92;65.50
71976;BME280;60680;52.182;5.398;2022-07-10T09:02:57;102715.50;;;18.02;65.00
71976;BME280;60680;52.182;5.398;2022-07-10T09:05:25;102712.94;;;18.01;65.57
71976;BME280;60680;52.182;5.398;2022-07-10T09:07:53;102717.28;;;18.02;64.02
71976;BME280;60680;52.182;5.398;2022-07-10T09:10:27;102711.22;;;18.00;64.19
71976;BME280;60680;52.182;5.398;2022-07-10T09:13:01;102710.56;;;17.96;64.44
71976;BME280;60680;52.182;5.398;2022-07-10T09:15:31;102710.31;;;18.01;64.63
71976;BME280;60680;52.182;5.398;2022-07-10T09:18:01;102705.41;;;18.10;64.58
71976;BME280;60680;52.182;5.398;2022-07-10T09:20:36;102701.47;;;18.19;64.55
71976;BME280;60680;52.182;5.398;2022-07-10T09:23:17;102704.75;;;18.23;63.71
71976;BME280;60680;52.182;5.398;2022-07-10T09:25:45;102712.22;;;18.14;63.21
71976;BME280;60680;52.182;5.398;2022-07-10T09:28:12;102705.94;;;18.17;64.38
71976;BME280;60680;52.182;5.398;2022-07-10T09:30:39;102713.63;;;18.22;63.50
71976;BME280;60680;52.182;5.398;2022-07-10T09:36:03;102706.56;;;18.38;63.92
71976;BME280;60680;52.182;5.398;2022-07-10T09:41:18;102694.00;;;18.59;62.53
71976;BME280;60680;52.182;5.398;2022-07-10T09:43:50;102684.84;;;18.66;62.53
71976;BME280;60680;52.182;5.398;2022-07-10T09:46:19;102685.69;;;18.67;62.57
71976;BME280;60680;52.182;5.398;2022-07-10T09:48:46;102687.16;;;18.72;62.39
71976;BME280;60680;52.182;5.398;2022-07-10T09:51:13;102681.56;;;18.79;62.78
71976;BME280;60680;52.182;5.398;2022-07-10T09:53:42;102679.09;;;18.91;62.86
71976;BME280;60680;52.182;5.398;2022-07-10T09:56:11;102675.69;;;18.89;61.56
71976;BME280;60680;52.182;5.398;2022-07-10T09:58:39;102668.63;;;18.90;61.46
71976;BME280;60680;52.182;5.398;2022-07-10T10:01:08;102670.91;;;18.96;62.42
71976;BME280;60680;52.182;5.398;2022-07-10T10:03:37;102664.94;;;19.08;62.41
71976;BME280;60680;52.182;5.398;2022-07-10T10:06:15;102678.88;;;19.10;61.80
71976;BME280;60680;52.182;5.398;2022-07-10T10:09:03;102673.56;;;18.96;61.78
71976;BME280;60680;52.182;5.398;2022-07-10T10:11:33;102677.94;;;18.95;61.88
71976;BME280;60680;52.182;5.398;2022-07-10T10:14:01;102673.56;;;18.96;61.95
71976;BME280;60680;52.182;5.398;2022-07-10T10:16:29;102677.94;;;18.95;61.78
71976;BME280;60680;52.182;5.398;2022-07-10T10:19:02;102686.06;;;18.92;62.54
71976;BME280;60680;52.182;5.398;2022-07-10T10:21:48;102686.31;;;18.88;61.83
71976;BME280;60680;52.182;5.398;2022-07-10T10:24:16;102686.41;;;18.86;62.54
71976;BME280;60680;52.182;5.398;2022-07-10T10:26:43;102686.97;;;18.75;62.25
71976;BME280;60680;52.182;5.398;2022-07-10T10:29:11;102687.72;;;18.78;63.38
71976;BME280;60680;52.182;5.398;2022-07-10T10:31:37;102684.03;;;18.82;62.31
71976;BME280;60680;52.182;5.398;2022-07-10T10:34:05;102684.72;;;18.85;62.26
71976;BME280;60680;52.182;5.398;2022-07-10T10:39:10;102676.06;;;18.98;62.08
71976;BME280;60680;52.182;5.398;2022-07-10T10:41:46;102666.97;;;19.03;62.16
71976;BME280;60680;52.182;5.398;2022-07-10T10:49:26;102679.75;;;18.95;61.07
71976;BME280;60680;52.182;5.398;2022-07-10T10:52:03;102678.91;;;18.94;61.95
71976;BME280;60680;52.182;5.398;2022-07-10T10:54:31;102677.72;;;19.00;61.84
71976;BME280;60680;52.182;5.398;2022-07-10T10:57:17;102682.03;;;19.01;61.41
71976;BME280;60680;52.182;5.398;2022-07-10T10:59:48;102678.63;;;18.99;62.10
71976;BME280;60680;52.182;5.398;2022-07-10T11:02:22;102679.59;;;18.98;60.64
71976;BME280;60680;52.182;5.398;2022-07-10T11:04:49;102669.31;;;18.93;60.56
71976;BME280;60680;52.182;5.398;2022-07-10T11:10:29;102671.81;;;19.11;60.90
71976;BME280;60680;52.182;5.398;2022-07-10T11:13:03;102672.81;;;19.24;61.05
71976;BME280;60680;52.182;5.398;2022-07-10T11:15:32;102667.66;;;19.37;59.72
71976;BME280;60680;52.182;5.398;2022-07-10T11:18:10;102668.22;;;19.42;59.50
71976;BME280;60680;52.182;5.398;2022-07-10T11:20:39;102666.22;;;19.31;57.97
71976;BME280;60680;52.182;5.398;2022-07-10T11:26:55;102665.22;;;19.48;58.46
71976;BME280;60680;52.182;5.398;2022-07-10T11:29:25;102665.63;;;19.56;59.59
71976;BME280;60680;52.182;5.398;2022-07-10T11:31:54;102662.72;;;19.61;57.75
71976;BME280;60680;52.182;5.398;2022-07-10T11:34:22;102673.63;;;19.71;58.81
71976;BME280;60680;52.182;5.398;2022-07-10T11:36:48;102669.00;;;19.74;57.80
71976;BME280;60680;52.182;5.398;2022-07-10T11:39:14;102664.78;;;19.56;57.39
71976;BME280;60680;52.182;5.398;2022-07-10T11:41:45;102666.19;;;19.47;57.32
71976;BME280;60680;52.182;5.398;2022-07-10T11:44:16;102666.19;;;19.47;58.06
71976;BME280;60680;52.182;5.398;2022-07-10T11:46:44;102661.31;;;19.55;58.12
71976;BME280;60680;52.182;5.398;2022-07-10T11:49:11;102663.97;;;19.70;58.75
71976;BME280;60680;52.182;5.398;2022-07-10T11:51:41;102656.56;;;19.77;58.08
71976;BME280;60680;52.182;5.398;2022-07-10T11:54:13;102651.28;;;19.77;57.66
71976;BME280;60680;52.182;5.398;2022-07-10T11:56:46;102647.31;;;19.84;57.64
71976;BME280;60680;52.182;5.398;2022-07-10T11:59:14;102657.59;;;19.88;55.58
71976;BME280;60680;52.182;5.398;2022-07-10T12:01:42;102645.72;;;19.81;55.85
71976;BME280;60680;52.182;5.398;2022-07-10T12:04:10;102645.50;;;19.84;54.67
71976;BME280;60680;52.182;5.398;2022-07-10T12:06:39;102648.25;;;19.97;55.43
71976;BME280;60680;52.182;5.398;2022-07-10T12:09:24;102643.81;;;20.12;55.83
71976;BME280;60680;52.182;5.398;2022-07-10T12:12:04;102639.00;;;20.19;56.83
71976;BME280;60680;52.182;5.398;2022-07-10T12:14:33;102644.00;;;20.23;56.43
71976;BME280;60680;52.182;5.398;2022-07-10T12:16:59;102648.06;;;20.29;56.22
71976;BME280;60680;52.182;5.398;2022-07-10T12:19:31;102645.50;;;20.27;54.65
71976;BME280;60680;52.182;5.398;2022-07-10T12:22:04;102647.50;;;20.24;56.16
71976;BME280;60680;52.182;5.398;2022-07-10T12:24:31;102641.06;;;20.28;54.66
71976;BME280;60680;52.182;5.398;2022-07-10T12:26:58;102648.81;;;20.31;54.67
71976;BME280;60680;52.182;5.398;2022-07-10T12:29:28;102646.81;;;20.34;55.49
71976;BME280;60680;52.182;5.398;2022-07-10T12:31:56;102644.72;;;20.40;54.34
71976;BME280;60680;52.182;5.398;2022-07-10T12:34:37;102643.97;;;20.37;54.15
71976;BME280;60680;52.182;5.398;2022-07-10T12:37:10;102645.03;;;20.35;53.02
71976;BME280;60680;52.182;5.398;2022-07-10T12:39:45;102648.41;;;20.37;52.20
71976;BME280;60680;52.182;5.398;2022-07-10T12:42:12;102648.88;;;20.44;52.79
71976;BME280;60680;52.182;5.398;2022-07-10T12:44:42;102645.41;;;20.58;52.38
71976;BME280;60680;52.182;5.398;2022-07-10T12:47:13;102640.59;;;20.77;53.18
71976;BME280;60680;52.182;5.398;2022-07-10T12:50:03;102647.59;;;20.78;52.61
71976;BME280;60680;52.182;5.398;2022-07-10T12:52:34;102645.50;;;20.83;52.84
71976;BME280;60680;52.182;5.398;2022-07-10T12:55:18;102645.63;;;20.94;52.51
71976;BME280;60680;52.182;5.398;2022-07-10T12:57:55;102643.34;;;21.03;52.62
71976;BME280;60680;52.182;5.398;2022-07-10T13:00:48;102631.78;;;21.04;52.27
71976;BME280;60680;52.182;5.398;2022-07-10T13:03:18;102630.53;;;21.09;53.23
71976;BME280;60680;52.182;5.398;2022-07-10T13:05:45;102626.88;;;21.25;51.77
71976;BME280;60680;52.182;5.398;2022-07-10T13:08:13;102634.50;;;21.29;51.07
71976;BME280;60680;52.182;5.398;2022-07-10T13:10:48;102636.50;;;21.53;52.25
71976;BME280;60680;52.182;5.398;2022-07-10T13:13:15;102629.47;;;21.52;50.66
71976;BME280;60680;52.182;5.398;2022-07-10T13:15:43;102623.66;;;21.47;50.70
71976;BME280;60680;52.182;5.398;2022-07-10T13:18:17;102635.41;;;21.55;51.46